sensor_id;sensor_type;location;lat;lon;timestamp;P1;durP1;ratioP1;P2;durP2;ratioP2
37199;SDS011;23096;50.892;16.746;2022-09-03T00:01:15;3.08;;;0.98;;
37199;SDS011;23096;50.892;16.746;2022-09-03T00:03:56;1.77;;;0.95;;
37199;SDS011;23096;50.892;16.746;2022-09-03T00:06:33;2.08;;;1.30;;
37199;SDS011;23096;50.892;16.746;2022-09-03T00:09:34;1.95;;;1.02;;
37199;SDS011;23096;50.892;16.746;2022-09-03T00:14:50;2.02;;;1.30;;
37199;SDS011;23096;50.892;16.746;2022-09-03T00:20:25;6.20;;;1.50;;
37199;SDS011;23096;50.892;16.746;2022-09-03T00:22:59;2.15;;;1.47;;
37199;SDS011;23096;50.892;16.746;2022-09-03T00:28:10;2.42;;;1.30;;
37199;SDS011;23096;50.892;16.746;2022-09-03T00:30:43;1.50;;;1.27;;
37199;SDS011;23096;50.892;16.746;2022-09-03T00:33:20;3.92;;;1.20;;
37199;SDS011;23096;50.892;16.746;2022-09-03T00:35:53;4.83;;;1.40;;
37199;SDS011;23096;50.892;16.746;2022-09-03T00:38:37;4.45;;;1.60;;
37199;SDS011;23096;50.892;16.746;2022-09-03T00:41:16;2.25;;;1.12;;
37199;SDS011;23096;50.892;16.746;2022-09-03T00:46:34;1.77;;;1.10;;
37199;SDS011;23096;50.892;16.746;2022-09-03T00:49:43;4.20;;;1.32;;
37199;SDS011;23096;50.892;16.746;2022-09-03T00:55:12;1.30;;;1.20;;
37199;SDS011;23096;50.892;16.746;2022-09-03T00:58:01;1.50;;;1.20;;
37199;SDS011;23096;50.892;16.746;2022-09-03T01:00:46;2.65;;;1.10;;
37199;SDS011;23096;50.892;16.746;2022-09-03T01:06:11;2.47;;;1.20;;
37199;SDS011;23096;50.892;16.746;2022-09-03T01:09:01;5.55;;;1.50;;
37199;SDS011;23096;50.892;16.746;2022-09-03T01:11:55;3.35;;;1.40;;
37199;SDS011;23096;50.892;16.746;2022-09-03T01:20:20;4.25;;;1.20;;
37199;SDS011;23096;50.892;16.746;2022-09-03T01:26:07;2.50;;;1.30;;
37199;SDS011;23096;50.892;16.746;2022-09-03T01:44:01;3.52;;;1.30;;
37199;SDS011;23096;50.892;16.746;2022-09-03T01:46:38;3.22;;;1.70;;
37199;SDS011;23096;50.892;16.746;2022-09-03T01:51:45;3.47;;;1.10;;
37199;SDS011;23096;50.892;16.746;2022-09-03T01:54:30;1.82;;;0.90;;
37199;SDS011;23096;50.892;16.746;2022-09-03T02:00:10;3.95;;;1.50;;
37199;SDS011;23096;50.892;16.746;2022-09-03T02:02:45;2.55;;;1.30;;
37199;SDS011;23096;50.892;16.746;2022-09-03T02:05:26;2.87;;;1.72;;
37199;SDS011;23096;50.892;16.746;2022-09-03T02:07:58;1.52;;;0.88;;
37199;SDS011;23096;50.892;16.746;2022-09-03T02:10:29;2.12;;;1.10;;
37199;SDS011;23096;50.892;16.746;2022-09-03T02:13:17;5.78;;;1.30;;
37199;SDS011;23096;50.892;16.746;2022-09-03T02:15:51;2.52;;;1.30;;
37199;SDS011;23096;50.892;16.746;2022-09-03T02:18:28;3.42;;;1.32;;
37199;SDS011;23096;50.892;16.746;2022-09-03T02:20:55;4.45;;;1.12;;
37199;SDS011;23096;50.892;16.746;2022-09-03T02:23:23;2.85;;;1.50;;
37199;SDS011;23096;50.892;16.746;2022-09-03T02:25:53;2.35;;;1.40;;
37199;SDS011;23096;50.892;16.746;2022-09-03T02:28:24;4.10;;;1.40;;
37199;SDS011;23096;50.892;16.746;2022-09-03T02:30:53;1.52;;;1.15;;
37199;SDS011;23096;50.892;16.746;2022-09-03T02:33:19;0.85;;;0.82;;
37199;SDS011;23096;50.892;16.746;2022-09-03T02:35:45;2.20;;;1.30;;
37199;SDS011;23096;50.892;16.746;2022-09-03T02:38:13;2.92;;;1.00;;
37199;SDS011;23096;50.892;16.746;2022-09-03T02:40:42;3.10;;;1.57;;
37199;SDS011;23096;50.892;16.746;2022-09-03T02:43:12;3.67;;;1.32;;
37199;SDS011;23096;50.892;16.746;2022-09-03T02:45:56;2.90;;;1.82;;
37199;SDS011;23096;50.892;16.746;2022-09-03T02:48:26;2.02;;;1.10;;
37199;SDS011;23096;50.892;16.746;2022-09-03T02:50:53;1.80;;;1.02;;
37199;SDS011;23096;50.892;16.746;2022-09-03T02:53:19;2.87;;;1.35;;
37199;SDS011;23096;50.892;16.746;2022-09-03T02:55:45;4.22;;;1.52;;
37199;SDS011;23096;50.892;16.746;2022-09-03T02:58:12;2.30;;;1.40;;
37199;SDS011;23096;50.892;16.746;2022-09-03T03:00:38;3.40;;;1.50;;
37199;SDS011;23096;50.892;16.746;2022-09-03T03:03:04;3.08;;;1.40;;
37199;SDS011;23096;50.892;16.746;2022-09-03T03:05:44;1.95;;;1.15;;
37199;SDS011;23096;50.892;16.746;2022-09-03T03:08:17;2.05;;;1.62;;
37199;SDS011;23096;50.892;16.746;2022-09-03T03:13:17;5.65;;;1.17;;
37199;SDS011;23096;50.892;16.746;2022-09-03T03:15:44;2.95;;;1.42;;
37199;SDS011;23096;50.892;16.746;2022-09-03T03:18:12;2.62;;;1.07;;
37199;SDS011;23096;50.892;16.746;2022-09-03T03:20:38;8.53;;;1.42;;
37199;SDS011;23096;50.892;16.746;2022-09-03T03:23:07;2.42;;;1.15;;
37199;SDS011;23096;50.892;16.746;2022-09-03T03:25:34;6.95;;;1.42;;
37199;SDS011;23096;50.892;16.746;2022-09-03T03:28:03;4.62;;;1.37;;
37199;SDS011;23096;50.892;16.746;2022-09-03T03:30:30;3.35;;;1.22;;
37199;SDS011;23096;50.892;16.746;2022-09-03T03:32:58;5.03;;;1.60;;
37199;SDS011;23096;50.892;16.746;2022-09-03T03:35:25;4.80;;;1.75;;
37199;SDS011;23096;50.892;16.746;2022-09-03T03:37:51;3.08;;;1.30;;
37199;SDS011;23096;50.892;16.746;2022-09-03T03:40:17;1.45;;;1.20;;
37199;SDS011;23096;50.892;16.746;2022-09-03T03:42:44;2.40;;;1.40;;
37199;SDS011;23096;50.892;16.746;2022-09-03T03:45:11;1.95;;;1.10;;
37199;SDS011;23096;50.892;16.746;2022-09-03T03:47:37;2.27;;;1.20;;
37199;SDS011;23096;50.892;16.746;2022-09-03T03:50:03;3.65;;;1.32;;
37199;SDS011;23096;50.892;16.746;2022-09-03T03:52:30;2.72;;;1.60;;
37199;SDS011;23096;50.892;16.746;2022-09-03T03:54:57;4.45;;;1.52;;
37199;SDS011;23096;50.892;16.746;2022-09-03T03:57:23;3.12;;;1.30;;
37199;SDS011;23096;50.892;16.746;2022-09-03T03:59:49;4.50;;;1.20;;
37199;SDS011;23096;50.892;16.746;2022-09-03T04:02:16;1.40;;;1.00;;
37199;SDS011;23096;50.892;16.746;2022-09-03T04:04:43;2.40;;;1.42;;
37199;SDS011;23096;50.892;16.746;2022-09-03T04:07:09;1.95;;;1.60;;
37199;SDS011;23096;50.892;16.746;2022-09-03T04:09:35;3.30;;;1.30;;
37199;SDS011;23096;50.892;16.746;2022-09-03T04:12:02;3.00;;;1.20;;
37199;SDS011;23096;50.892;16.746;2022-09-03T04:14:30;2.20;;;1.10;;
37199;SDS011;23096;50.892;16.746;2022-09-03T04:16:56;3.87;;;1.82;;
37199;SDS011;23096;50.892;16.746;2022-09-03T04:19:23;1.77;;;1.30;;
37199;SDS011;23096;50.892;16.746;2022-09-03T04:21:49;4.12;;;1.35;;
37199;SDS011;23096;50.892;16.746;2022-09-03T04:24:15;3.33;;;1.15;;
37199;SDS011;23096;50.892;16.746;2022-09-03T04:26:41;1.62;;;1.15;;
37199;SDS011;23096;50.892;16.746;2022-09-03T04:29:08;2.22;;;1.10;;
37199;SDS011;23096;50.892;16.746;2022-09-03T04:31:35;5.25;;;1.40;;
37199;SDS011;23096;50.892;16.746;2022-09-03T04:34:03;2.65;;;1.60;;
37199;SDS011;23096;50.892;16.746;2022-09-03T04:36:31;3.35;;;1.20;;
37199;SDS011;23096;50.892;16.746;2022-09-03T04:38:59;5.70;;;2.22;;
37199;SDS011;23096;50.892;16.746;2022-09-03T04:41:27;3.35;;;1.47;;
37199;SDS011;23096;50.892;16.746;2022-09-03T04:43:56;3.33;;;1.35;;
37199;SDS011;23096;50.892;16.746;2022-09-03T04:46:25;3.25;;;1.60;;
37199;SDS011;23096;50.892;16.746;2022-09-03T04:48:55;2.90;;;1.50;;
37199;SDS011;23096;50.892;16.746;2022-09-03T04:51:23;3.65;;;1.50;;
37199;SDS011;23096;50.892;16.746;2022-09-03T04:53:57;2.00;;;1.27;;
37199;SDS011;23096;50.892;16.746;2022-09-03T04:56:32;3.80;;;1.82;;
37199;SDS011;23096;50.892;16.746;2022-09-03T04:59:04;3.02;;;1.50;;
37199;SDS011;23096;50.892;16.746;2022-09-03T05:01:31;1.70;;;1.40;;
37199;SDS011;23096;50.892;16.746;2022-09-03T05:03:59;2.27;;;1.40;;
37199;SDS011;23096;50.892;16.746;2022-09-03T05:06:27;4.25;;;1.80;;
37199;SDS011;23096;50.892;16.746;2022-09-03T05:08:55;2.55;;;1.90;;
37199;SDS011;23096;50.892;16.746;2022-09-03T05:11:22;3.27;;;1.50;;
37199;SDS011;23096;50.892;16.746;2022-09-03T05:13:51;3.20;;;1.60;;
37199;SDS011;23096;50.892;16.746;2022-09-03T05:16:20;3.33;;;1.75;;
37199;SDS011;23096;50.892;16.746;2022-09-03T05:18:52;2.30;;;1.30;;
37199;SDS011;23096;50.892;16.746;2022-09-03T05:21:21;4.83;;;1.70;;
37199;SDS011;23096;50.892;16.746;2022-09-03T05:23:48;2.85;;;1.20;;
37199;SDS011;23096;50.892;16.746;2022-09-03T05:26:17;1.65;;;1.32;;
37199;SDS011;23096;50.892;16.746;2022-09-03T05:28:51;1.95;;;1.40;;
37199;SDS011;23096;50.892;16.746;2022-09-03T05:31:20;2.40;;;1.45;;
37199;SDS011;23096;50.892;16.746;2022-09-03T05:33:48;6.00;;;1.80;;
37199;SDS011;23096;50.892;16.746;2022-09-03T05:36:18;7.53;;;1.80;;
37199;SDS011;23096;50.892;16.746;2022-09-03T05:38:47;3.27;;;1.37;;
37199;SDS011;23096;50.892;16.746;2022-09-03T05:41:15;8.45;;;2.10;;
37199;SDS011;23096;50.892;16.746;2022-09-03T05:43:42;2.90;;;1.55;;
37199;SDS011;23096;50.892;16.746;2022-09-03T05:46:11;2.08;;;1.35;;
37199;SDS011;23096;50.892;16.746;2022-09-03T05:48:40;2.87;;;1.57;;
37199;SDS011;23096;50.892;16.746;2022-09-03T05:51:08;3.02;;;1.82;;
37199;SDS011;23096;50.892;16.746;2022-09-03T05:53:38;4.28;;;1.82;;
37199;SDS011;23096;50.892;16.746;2022-09-03T05:56:06;5.65;;;1.80;;
37199;SDS011;23096;50.892;16.746;2022-09-03T05:58:37;2.80;;;1.72;;
37199;SDS011;23096;50.892;16.746;2022-09-03T06:03:45;4.75;;;1.60;;
37199;SDS011;23096;50.892;16.746;2022-09-03T06:06:13;2.15;;;1.95;;
37199;SDS011;23096;50.892;16.746;2022-09-03T06:08:40;4.90;;;2.50;;
37199;SDS011;23096;50.892;16.746;2022-09-03T06:11:09;4.12;;;2.05;;
37199;SDS011;23096;50.892;16.746;2022-09-03T06:13:37;3.42;;;1.60;;
37199;SDS011;23096;50.892;16.746;2022-09-03T06:16:03;2.58;;;1.70;;
37199;SDS011;23096;50.892;16.746;2022-09-03T06:18:31;2.87;;;1.22;;
37199;SDS011;23096;50.892;16.746;2022-09-03T06:20:58;2.08;;;1.50;;
37199;SDS011;23096;50.892;16.746;2022-09-03T06:23:27;7.00;;;1.87;;
37199;SDS011;23096;50.892;16.746;2022-09-03T06:26:05;4.20;;;1.90;;
37199;SDS011;23096;50.892;16.746;2022-09-03T06:28:34;3.65;;;1.77;;
37199;SDS011;23096;50.892;16.746;2022-09-03T06:31:03;2.45;;;1.75;;
37199;SDS011;23096;50.892;16.746;2022-09-03T06:33:33;3.22;;;1.90;;
37199;SDS011;23096;50.892;16.746;2022-09-03T06:36:02;2.50;;;1.47;;
37199;SDS011;23096;50.892;16.746;2022-09-03T06:38:32;3.92;;;1.90;;
37199;SDS011;23096;50.892;16.746;2022-09-03T06:41:00;2.33;;;1.35;;
37199;SDS011;23096;50.892;16.746;2022-09-03T06:43:30;2.45;;;1.80;;
37199;SDS011;23096;50.892;16.746;2022-09-03T06:46:04;3.60;;;2.22;;
37199;SDS011;23096;50.892;16.746;2022-09-03T06:48:34;6.40;;;2.67;;
37199;SDS011;23096;50.892;16.746;2022-09-03T06:51:03;3.08;;;2.17;;
37199;SDS011;23096;50.892;16.746;2022-09-03T06:53:36;4.80;;;1.67;;
37199;SDS011;23096;50.892;16.746;2022-09-03T06:58:39;4.67;;;1.92;;
37199;SDS011;23096;50.892;16.746;2022-09-03T07:01:10;3.17;;;2.20;;
37199;SDS011;23096;50.892;16.746;2022-09-03T07:03:41;3.55;;;2.00;;
37199;SDS011;23096;50.892;16.746;2022-09-03T07:06:09;2.37;;;1.47;;
37199;SDS011;23096;50.892;16.746;2022-09-03T07:08:39;3.00;;;1.95;;
37199;SDS011;23096;50.892;16.746;2022-09-03T07:11:08;4.75;;;2.20;;
37199;SDS011;23096;50.892;16.746;2022-09-03T07:13:45;3.52;;;1.70;;
37199;SDS011;23096;50.892;16.746;2022-09-03T07:16:15;4.53;;;1.67;;
37199;SDS011;23096;50.892;16.746;2022-09-03T07:18:44;3.58;;;2.20;;
37199;SDS011;23096;50.892;16.746;2022-09-03T07:21:14;3.72;;;2.08;;
37199;SDS011;23096;50.892;16.746;2022-09-03T07:23:44;4.53;;;1.90;;
37199;SDS011;23096;50.892;16.746;2022-09-03T07:26:13;4.28;;;1.82;;
37199;SDS011;23096;50.892;16.746;2022-09-03T07:28:42;4.45;;;2.40;;
37199;SDS011;23096;50.892;16.746;2022-09-03T07:31:11;2.77;;;1.72;;
37199;SDS011;23096;50.892;16.746;2022-09-03T07:33:43;3.47;;;2.10;;
37199;SDS011;23096;50.892;16.746;2022-09-03T07:36:14;5.17;;;2.37;;
37199;SDS011;23096;50.892;16.746;2022-09-03T07:38:42;2.65;;;1.80;;
37199;SDS011;23096;50.892;16.746;2022-09-03T07:41:10;5.67;;;2.70;;
37199;SDS011;23096;50.892;16.746;2022-09-03T07:43:43;3.77;;;1.95;;
37199;SDS011;23096;50.892;16.746;2022-09-03T07:46:16;4.10;;;2.20;;
37199;SDS011;23096;50.892;16.746;2022-09-03T07:48:53;7.03;;;2.75;;
37199;SDS011;23096;50.892;16.746;2022-09-03T07:51:22;8.55;;;2.90;;
37199;SDS011;23096;50.892;16.746;2022-09-03T07:53:53;7.92;;;2.80;;
37199;SDS011;23096;50.892;16.746;2022-09-03T07:56:22;3.25;;;2.35;;
37199;SDS011;23096;50.892;16.746;2022-09-03T07:58:49;4.90;;;2.30;;
37199;SDS011;23096;50.892;16.746;2022-09-03T08:01:17;3.05;;;2.15;;
37199;SDS011;23096;50.892;16.746;2022-09-03T08:03:46;4.20;;;2.65;;
37199;SDS011;23096;50.892;16.746;2022-09-03T08:06:16;7.15;;;3.25;;
37199;SDS011;23096;50.892;16.746;2022-09-03T08:08:45;4.90;;;2.70;;
37199;SDS011;23096;50.892;16.746;2022-09-03T08:11:12;5.17;;;3.12;;
37199;SDS011;23096;50.892;16.746;2022-09-03T08:13:42;6.15;;;3.02;;
37199;SDS011;23096;50.892;16.746;2022-09-03T08:16:11;5.83;;;2.58;;
37199;SDS011;23096;50.892;16.746;2022-09-03T08:18:39;6.25;;;3.35;;
37199;SDS011;23096;50.892;16.746;2022-09-03T08:21:08;6.60;;;2.80;;
37199;SDS011;23096;50.892;16.746;2022-09-03T08:23:38;4.92;;;2.60;;
37199;SDS011;23096;50.892;16.746;2022-09-03T08:26:06;6.95;;;2.87;;
37199;SDS011;23096;50.892;16.746;2022-09-03T08:28:34;9.28;;;2.70;;
37199;SDS011;23096;50.892;16.746;2022-09-03T08:31:09;6.20;;;3.50;;
37199;SDS011;23096;50.892;16.746;2022-09-03T08:33:40;8.00;;;3.80;;
37199;SDS011;23096;50.892;16.746;2022-09-03T08:36:11;4.90;;;3.02;;
37199;SDS011;23096;50.892;16.746;2022-09-03T08:38:42;8.13;;;3.62;;
37199;SDS011;23096;50.892;16.746;2022-09-03T08:41:20;9.45;;;2.77;;
37199;SDS011;23096;50.892;16.746;2022-09-03T09:09:37;6.03;;;3.10;;
37199;SDS011;23096;50.892;16.746;2022-09-03T09:15:06;5.22;;;2.90;;
37199;SDS011;23096;50.892;16.746;2022-09-03T09:21:02;6.03;;;2.80;;
37199;SDS011;23096;50.892;16.746;2022-09-03T09:26:18;7.97;;;3.27;;
37199;SDS011;23096;50.892;16.746;2022-09-03T09:28:46;10.95;;;3.10;;
37199;SDS011;23096;50.892;16.746;2022-09-03T09:31:26;8.65;;;3.42;;
37199;SDS011;23096;50.892;16.746;2022-09-03T09:34:00;4.28;;;3.25;;
37199;SDS011;23096;50.892;16.746;2022-09-03T09:36:41;5.22;;;3.45;;
37199;SDS011;23096;50.892;16.746;2022-09-03T09:39:09;4.60;;;2.95;;
37199;SDS011;23096;50.892;16.746;2022-09-03T09:41:38;7.42;;;3.30;;
37199;SDS011;23096;50.892;16.746;2022-09-03T09:44:04;4.78;;;2.62;;
37199;SDS011;23096;50.892;16.746;2022-09-03T09:46:36;4.60;;;2.95;;
37199;SDS011;23096;50.892;16.746;2022-09-03T10:28:20;7.72;;;3.22;;
37199;SDS011;23096;50.892;16.746;2022-09-03T10:30:55;9.55;;;3.33;;
37199;SDS011;23096;50.892;16.746;2022-09-03T10:34:08;5.80;;;3.10;;
37199;SDS011;23096;50.892;16.746;2022-09-03T10:37:11;6.40;;;3.30;;
37199;SDS011;23096;50.892;16.746;2022-09-03T10:45:18;9.08;;;3.40;;
37199;SDS011;23096;50.892;16.746;2022-09-03T10:48:20;8.08;;;3.55;;
37199;SDS011;23096;50.892;16.746;2022-09-03T10:56:46;5.08;;;3.02;;
37199;SDS011;23096;50.892;16.746;2022-09-03T10:59:48;3.90;;;2.37;;
37199;SDS011;23096;50.892;16.746;2022-09-03T11:08:05;6.35;;;3.65;;
37199;SDS011;23096;50.892;16.746;2022-09-03T11:10:42;7.37;;;2.95;;
37199;SDS011;23096;50.892;16.746;2022-09-03T11:18:27;4.20;;;2.55;;
37199;SDS011;23096;50.892;16.746;2022-09-03T11:21:17;4.33;;;2.77;;
37199;SDS011;23096;50.892;16.746;2022-09-03T11:23:56;3.00;;;2.58;;
37199;SDS011;23096;50.892;16.746;2022-09-03T11:26:24;4.05;;;2.27;;
37199;SDS011;23096;50.892;16.746;2022-09-03T11:31:51;7.65;;;3.42;;
37199;SDS011;23096;50.892;16.746;2022-09-03T11:34:31;5.92;;;2.62;;
37199;SDS011;23096;50.892;16.746;2022-09-03T11:37:22;9.08;;;2.75;;
37199;SDS011;23096;50.892;16.746;2022-09-03T11:39:58;6.67;;;2.70;;
37199;SDS011;23096;50.892;16.746;2022-09-03T11:42:38;4.53;;;2.72;;
37199;SDS011;23096;50.892;16.746;2022-09-03T11:47:50;3.98;;;2.58;;
37199;SDS011;23096;50.892;16.746;2022-09-03T11:50:28;5.08;;;2.37;;
37199;SDS011;23096;50.892;16.746;2022-09-03T11:52:51;5.90;;;2.77;;
37199;SDS011;23096;50.892;16.746;2022-09-03T11:58:09;2.98;;;2.45;;
37199;SDS011;23096;50.892;16.746;2022-09-03T12:00:38;5.00;;;2.58;;
37199;SDS011;23096;50.892;16.746;2022-09-03T12:03:11;4.05;;;2.77;;
37199;SDS011;23096;50.892;16.746;2022-09-03T12:05:55;5.25;;;3.52;;
37199;SDS011;23096;50.892;16.746;2022-09-03T12:14:32;7.42;;;2.45;;
37199;SDS011;23096;50.892;16.746;2022-09-03T12:17:22;4.90;;;2.25;;
37199;SDS011;23096;50.892;16.746;2022-09-03T12:19:55;3.17;;;2.12;;
37199;SDS011;23096;50.892;16.746;2022-09-03T12:22:24;3.47;;;2.55;;
37199;SDS011;23096;50.892;16.746;2022-09-03T12:24:53;2.52;;;1.82;;
37199;SDS011;23096;50.892;16.746;2022-09-03T12:27:21;3.75;;;2.08;;
37199;SDS011;23096;50.892;16.746;2022-09-03T12:29:51;3.17;;;2.02;;
37199;SDS011;23096;50.892;16.746;2022-09-03T12:32:27;5.40;;;2.65;;
37199;SDS011;23096;50.892;16.746;2022-09-03T12:35:09;4.67;;;2.30;;
37199;SDS011;23096;50.892;16.746;2022-09-03T12:37:41;3.47;;;2.40;;
37199;SDS011;23096;50.892;16.746;2022-09-03T12:40:19;3.47;;;2.12;;
37199;SDS011;23096;50.892;16.746;2022-09-03T12:42:48;5.80;;;2.27;;
37199;SDS011;23096;50.892;16.746;2022-09-03T12:45:17;4.80;;;2.20;;
37199;SDS011;23096;50.892;16.746;2022-09-03T12:47:47;4.72;;;2.40;;
37199;SDS011;23096;50.892;16.746;2022-09-03T12:50:18;4.37;;;2.67;;
37199;SDS011;23096;50.892;16.746;2022-09-03T12:52:55;4.35;;;2.00;;
37199;SDS011;23096;50.892;16.746;2022-09-03T12:58:22;3.73;;;2.10;;
37199;SDS011;23096;50.892;16.746;2022-09-03T13:03:44;3.65;;;2.62;;
37199;SDS011;23096;50.892;16.746;2022-09-03T13:06:27;4.53;;;2.67;;
37199;SDS011;23096;50.892;16.746;2022-09-03T13:09:02;3.72;;;2.30;;
37199;SDS011;23096;50.892;16.746;2022-09-03T13:11:33;8.10;;;3.10;;
37199;SDS011;23096;50.892;16.746;2022-09-03T13:14:04;2.90;;;2.00;;
37199;SDS011;23096;50.892;16.746;2022-09-03T13:25:27;6.28;;;2.95;;
37199;SDS011;23096;50.892;16.746;2022-09-03T13:28:20;7.35;;;3.20;;
37199;SDS011;23096;50.892;16.746;2022-09-03T13:30:55;4.28;;;2.65;;
37199;SDS011;23096;50.892;16.746;2022-09-03T13:33:31;6.65;;;2.75;;
37199;SDS011;23096;50.892;16.746;2022-09-03T13:38:53;3.58;;;2.30;;
37199;SDS011;23096;50.892;16.746;2022-09-03T13:41:47;3.90;;;2.35;;
37199;SDS011;23096;50.892;16.746;2022-09-03T13:50:30;6.83;;;2.83;;
37199;SDS011;23096;50.892;16.746;2022-09-03T13:53:08;5.85;;;2.55;;
37199;SDS011;23096;50.892;16.746;2022-09-03T13:55:52;5.92;;;2.67;;
37199;SDS011;23096;50.892;16.746;2022-09-03T14:01:12;3.90;;;2.55;;
37199;SDS011;23096;50.892;16.746;2022-09-03T14:03:55;3.05;;;2.15;;
37199;SDS011;23096;50.892;16.746;2022-09-03T14:06:36;4.45;;;2.70;;
37199;SDS011;23096;50.892;16.746;2022-09-03T14:09:29;7.45;;;3.00;;
37199;SDS011;23096;50.892;16.746;2022-09-03T14:15:16;7.72;;;2.67;;
37199;SDS011;23096;50.892;16.746;2022-09-03T14:26:56;4.25;;;2.72;;
37199;SDS011;23096;50.892;16.746;2022-09-03T14:29:30;5.67;;;3.10;;
37199;SDS011;23096;50.892;16.746;2022-09-03T14:38:08;6.95;;;2.80;;
37199;SDS011;23096;50.892;16.746;2022-09-03T14:53:19;4.50;;;2.95;;
37199;SDS011;23096;50.892;16.746;2022-09-03T14:56:16;8.80;;;4.30;;
37199;SDS011;23096;50.892;16.746;2022-09-03T15:05:07;6.47;;;3.62;;
37199;SDS011;23096;50.892;16.746;2022-09-03T15:31:46;7.45;;;3.72;;
37199;SDS011;23096;50.892;16.746;2022-09-03T15:36:35;4.65;;;3.52;;
37199;SDS011;23096;50.892;16.746;2022-09-03T15:39:08;6.00;;;2.92;;
37199;SDS011;23096;50.892;16.746;2022-09-03T15:41:50;7.22;;;3.60;;
37199;SDS011;23096;50.892;16.746;2022-09-03T15:44:23;5.33;;;3.30;;
37199;SDS011;23096;50.892;16.746;2022-09-03T15:46:59;10.38;;;4.10;;
37199;SDS011;23096;50.892;16.746;2022-09-03T15:49:36;8.73;;;4.37;;
37199;SDS011;23096;50.892;16.746;2022-09-03T15:57:53;6.47;;;4.10;;
37199;SDS011;23096;50.892;16.746;2022-09-03T16:06:29;7.60;;;3.45;;
37199;SDS011;23096;50.892;16.746;2022-09-03T16:09:08;4.42;;;2.98;;
37199;SDS011;23096;50.892;16.746;2022-09-03T16:12:17;7.08;;;3.62;;
37199;SDS011;23096;50.892;16.746;2022-09-03T16:14:57;7.83;;;4.47;;
37199;SDS011;23096;50.892;16.746;2022-09-03T16:17:41;6.22;;;4.67;;
37199;SDS011;23096;50.892;16.746;2022-09-03T16:23:31;8.45;;;3.52;;
37199;SDS011;23096;50.892;16.746;2022-09-03T16:26:24;4.80;;;3.00;;
37199;SDS011;23096;50.892;16.746;2022-09-03T16:28:59;7.67;;;3.47;;
37199;SDS011;23096;50.892;16.746;2022-09-03T16:43:12;5.05;;;3.42;;
37199;SDS011;23096;50.892;16.746;2022-09-03T16:55:02;4.75;;;3.37;;
37199;SDS011;23096;50.892;16.746;2022-09-03T17:00:21;5.75;;;3.40;;
37199;SDS011;23096;50.892;16.746;2022-09-03T17:06:11;3.67;;;2.62;;
37199;SDS011;23096;50.892;16.746;2022-09-03T17:08:59;5.12;;;2.85;;
37199;SDS011;23096;50.892;16.746;2022-09-03T17:15:07;4.00;;;3.00;;
37199;SDS011;23096;50.892;16.746;2022-09-03T17:29:24;3.98;;;2.70;;
37199;SDS011;23096;50.892;16.746;2022-09-03T17:32:01;4.25;;;3.22;;
37199;SDS011;23096;50.892;16.746;2022-09-03T17:34:59;4.20;;;3.10;;
37199;SDS011;23096;50.892;16.746;2022-09-03T17:40:45;4.60;;;2.95;;
37199;SDS011;23096;50.892;16.746;2022-09-03T17:48:52;7.92;;;3.75;;
37199;SDS011;23096;50.892;16.746;2022-09-03T17:54:05;5.87;;;4.47;;
37199;SDS011;23096;50.892;16.746;2022-09-03T17:56:41;7.55;;;3.42;;
37199;SDS011;23096;50.892;16.746;2022-09-03T18:07:59;6.60;;;4.40;;
37199;SDS011;23096;50.892;16.746;2022-09-03T18:11:00;5.72;;;3.92;;
37199;SDS011;23096;50.892;16.746;2022-09-03T18:13:49;10.72;;;4.55;;
37199;SDS011;23096;50.892;16.746;2022-09-03T18:16:25;6.92;;;3.37;;
37199;SDS011;23096;50.892;16.746;2022-09-03T18:18:58;5.95;;;3.92;;
37199;SDS011;23096;50.892;16.746;2022-09-03T18:21:38;6.55;;;4.20;;
37199;SDS011;23096;50.892;16.746;2022-09-03T18:24:31;7.37;;;4.50;;
37199;SDS011;23096;50.892;16.746;2022-09-03T18:27:26;9.30;;;4.75;;
37199;SDS011;23096;50.892;16.746;2022-09-03T18:30:19;5.67;;;3.77;;
37199;SDS011;23096;50.892;16.746;2022-09-03T18:33:03;6.53;;;4.10;;
37199;SDS011;23096;50.892;16.746;2022-09-03T18:35:48;7.60;;;4.05;;
37199;SDS011;23096;50.892;16.746;2022-09-03T18:38:37;5.35;;;3.58;;
37199;SDS011;23096;50.892;16.746;2022-09-03T18:44:46;6.75;;;3.72;;
37199;SDS011;23096;50.892;16.746;2022-09-03T18:47:51;6.97;;;4.78;;
37199;SDS011;23096;50.892;16.746;2022-09-03T18:51:05;8.10;;;4.40;;
37199;SDS011;23096;50.892;16.746;2022-09-03T18:57:22;6.83;;;4.62;;
37199;SDS011;23096;50.892;16.746;2022-09-03T19:00:11;7.08;;;4.05;;
37199;SDS011;23096;50.892;16.746;2022-09-03T19:03:12;6.47;;;4.12;;
37199;SDS011;23096;50.892;16.746;2022-09-03T19:21:44;11.03;;;3.92;;
37199;SDS011;23096;50.892;16.746;2022-09-03T19:24:41;7.85;;;4.33;;
37199;SDS011;23096;50.892;16.746;2022-09-03T19:27:30;11.15;;;4.80;;
37199;SDS011;23096;50.892;16.746;2022-09-03T19:33:56;7.60;;;4.62;;
37199;SDS011;23096;50.892;16.746;2022-09-03T19:36:46;8.10;;;4.80;;
37199;SDS011;23096;50.892;16.746;2022-09-03T19:46:36;7.42;;;4.67;;
37199;SDS011;23096;50.892;16.746;2022-09-03T19:52:59;7.28;;;5.40;;
37199;SDS011;23096;50.892;16.746;2022-09-03T19:55:56;6.58;;;4.22;;
37199;SDS011;23096;50.892;16.746;2022-09-03T19:58:47;8.93;;;5.12;;
37199;SDS011;23096;50.892;16.746;2022-09-03T20:01:43;8.55;;;4.20;;
37199;SDS011;23096;50.892;16.746;2022-09-03T20:04:31;5.65;;;4.40;;
37199;SDS011;23096;50.892;16.746;2022-09-03T20:07:19;6.97;;;4.37;;
37199;SDS011;23096;50.892;16.746;2022-09-03T20:10:11;6.70;;;4.95;;
37199;SDS011;23096;50.892;16.746;2022-09-03T20:15:21;6.15;;;4.33;;
37199;SDS011;23096;50.892;16.746;2022-09-03T20:18:01;6.45;;;4.75;;
37199;SDS011;23096;50.892;16.746;2022-09-03T20:21:09;6.12;;;4.53;;
37199;SDS011;23096;50.892;16.746;2022-09-03T20:30:03;5.95;;;4.60;;
37199;SDS011;23096;50.892;16.746;2022-09-03T20:32:45;7.25;;;4.85;;
37199;SDS011;23096;50.892;16.746;2022-09-03T20:35:40;5.90;;;4.50;;
37199;SDS011;23096;50.892;16.746;2022-09-03T20:49:38;7.75;;;5.28;;
37199;SDS011;23096;50.892;16.746;2022-09-03T20:52:35;5.53;;;4.30;;
37199;SDS011;23096;50.892;16.746;2022-09-03T20:55:37;5.47;;;4.40;;
37199;SDS011;23096;50.892;16.746;2022-09-03T20:58:19;7.08;;;4.75;;
37199;SDS011;23096;50.892;16.746;2022-09-03T21:01:04;7.58;;;4.67;;
37199;SDS011;23096;50.892;16.746;2022-09-03T21:12:13;4.97;;;4.40;;
37199;SDS011;23096;50.892;16.746;2022-09-03T21:14:53;7.33;;;4.42;;
37199;SDS011;23096;50.892;16.746;2022-09-03T21:34:47;6.53;;;4.72;;
37199;SDS011;23096;50.892;16.746;2022-09-03T21:37:30;7.55;;;5.12;;
37199;SDS011;23096;50.892;16.746;2022-09-03T21:40:01;4.62;;;4.12;;
37199;SDS011;23096;50.892;16.746;2022-09-03T21:48:07;5.67;;;4.25;;
37199;SDS011;23096;50.892;16.746;2022-09-03T21:58:49;4.75;;;4.25;;
37199;SDS011;23096;50.892;16.746;2022-09-03T22:04:32;8.55;;;4.42;;
37199;SDS011;23096;50.892;16.746;2022-09-03T22:10:13;7.40;;;4.72;;
37199;SDS011;23096;50.892;16.746;2022-09-03T22:15:44;7.37;;;5.72;;
37199;SDS011;23096;50.892;16.746;2022-09-03T22:18:27;6.90;;;5.28;;
37199;SDS011;23096;50.892;16.746;2022-09-03T22:29:17;7.05;;;5.85;;
37199;SDS011;23096;50.892;16.746;2022-09-03T22:55:20;5.45;;;4.95;;
37199;SDS011;23096;50.892;16.746;2022-09-03T23:00:28;7.28;;;5.40;;
37199;SDS011;23096;50.892;16.746;2022-09-03T23:03:01;7.08;;;5.75;;
37199;SDS011;23096;50.892;16.746;2022-09-03T23:08:22;6.92;;;5.25;;
37199;SDS011;23096;50.892;16.746;2022-09-03T23:14:02;6.22;;;4.95;;
37199;SDS011;23096;50.892;16.746;2022-09-03T23:16:39;6.87;;;5.60;;
37199;SDS011;23096;50.892;16.746;2022-09-03T23:22:08;10.23;;;6.25;;